Time;durP1;ratioP1;P1;durP2;ratioP2;P2;SDS_P1;SDS_P2;PMS_P1;PMS_P2;Temp;Humidity;BMP_temperature;BMP_pressure;BME280_temperature;BME280_humidity;BME280_pressure;Samples;Min_cycle;Max_cycle;Signal;HPM_P1;HPM_P2
2022/07/15 00:00:15;;;;;;;5.68;2.03;;;;;;;;;;5089921;28;20040;-70
2022/07/15 00:02:41;;;;;;;5.25;2.28;;;;;;;;;;5112721;27;20504;-70
2022/07/15 00:05:08;;;;;;;12.43;2.65;;;;;;;;;;5092985;28;20039;-70
2022/07/15 00:07:34;;;;;;;6.93;3.10;;;;;;;;;;5086366;28;20095;-70
2022/07/15 00:10:16;;;;;;;5.88;1.98;;;;;;;;;;5101274;28;20130;-70
2022/07/15 00:12:43;;;;;;;7.45;2.80;;;;;;;;;;5087152;28;20043;-70
2022/07/15 00:15:09;;;;;;;5.93;2.17;;;;;;;;;;5092721;28;20542;-70
2022/07/15 00:17:36;;;;;;;5.38;2.25;;;;;;;;;;5091988;28;20047;-70
2022/07/15 00:20:02;;;;;;;7.78;2.15;;;;;;;;;;5093478;28;20075;-70
2022/07/15 00:22:28;;;;;;;8.40;3.15;;;;;;;;;;5090380;28;20038;-70
2022/07/15 00:24:54;;;;;;;4.43;1.80;;;;;;;;;;5087028;28;20166;-70
2022/07/15 00:27:20;;;;;;;7.53;3.15;;;;;;;;;;5089862;28;20123;-70
2022/07/15 00:29:46;;;;;;;7.55;2.10;;;;;;;;;;5070654;28;20047;-70
2022/07/15 00:32:12;;;;;;;5.85;1.95;;;;;;;;;;5096681;28;20043;-70
2022/07/15 00:34:39;;;;;;;3.42;1.60;;;;;;;;;;5090542;28;20097;-70
2022/07/15 00:37:05;;;;;;;7.25;1.90;;;;;;;;;;5092597;28;20044;-70
2022/07/15 00:39:31;;;;;;;8.85;2.28;;;;;;;;;;5089113;28;20326;-70
2022/07/15 00:41:58;;;;;;;5.65;1.98;;;;;;;;;;5097048;28;20052;-70
2022/07/15 00:44:24;;;;;;;4.35;1.65;;;;;;;;;;5085749;28;20059;-70
2022/07/15 00:46:51;;;;;;;6.25;2.05;;;;;;;;;;5088531;28;20029;-70
2022/07/15 00:49:18;;;;;;;4.13;2.05;;;;;;;;;;5088764;28;20468;-70
2022/07/15 00:51:45;;;;;;;6.75;2.47;;;;;;;;;;5088788;28;20040;-70
2022/07/15 00:54:13;;;;;;;12.27;2.35;;;;;;;;;;5088782;28;20084;-70
2022/07/15 00:56:42;;;;;;;5.43;2.13;;;;;;;;;;5092615;28;20094;-70
2022/07/15 00:59:09;;;;;;;6.05;1.83;;;;;;;;;;5090216;28;20048;-70
2022/07/15 01:01:35;;;;;;;7.95;1.60;;;;;;;;;;5095139;28;20048;-70
2022/07/15 01:04:03;;;;;;;5.30;1.42;;;;;;;;;;5093109;28;20527;-70
2022/07/15 01:06:29;;;;;;;5.93;1.67;;;;;;;;;;5091283;28;20042;-70
2022/07/15 01:08:55;;;;;;;8.57;2.40;;;;;;;;;;5093372;28;20031;-70
2022/07/15 01:11:21;;;;;;;5.43;1.67;;;;;;;;;;5092470;28;20508;-70
2022/07/15 01:13:48;;;;;;;3.72;1.83;;;;;;;;;;5085639;28;20063;-70
2022/07/15 01:16:14;;;;;;;8.45;3.15;;;;;;;;;;5075445;28;20063;-70
2022/07/15 01:18:40;;;;;;;4.35;1.88;;;;;;;;;;5095675;28;20126;-70
2022/07/15 01:21:07;;;;;;;5.80;2.05;;;;;;;;;;5092320;28;20044;-70
2022/07/15 01:23:33;;;;;;;7.18;1.75;;;;;;;;;;5098748;28;20052;-70
2022/07/15 01:25:59;;;;;;;6.40;1.52;;;;;;;;;;5075487;28;20493;-70
2022/07/15 01:28:28;;;;;;;5.70;1.90;;;;;;;;;;5100059;28;20099;-70
2022/07/15 01:30:54;;;;;;;4.80;1.65;;;;;;;;;;5093167;28;20392;-70
2022/07/15 01:33:20;;;;;;;9.85;2.30;;;;;;;;;;5100118;28;20455;-70
2022/07/15 01:35:46;;;;;;;3.83;1.60;;;;;;;;;;5088271;28;20033;-70
2022/07/15 01:38:13;;;;;;;4.55;1.13;;;;;;;;;;5094299;28;20075;-70
2022/07/15 01:40:39;;;;;;;4.05;1.40;;;;;;;;;;5100444;28;20082;-70
2022/07/15 01:43:05;;;;;;;5.65;1.40;;;;;;;;;;5103716;27;20481;-70
2022/07/15 01:45:31;;;;;;;5.20;1.75;;;;;;;;;;5092237;28;20043;-70
2022/07/15 01:47:57;;;;;;;9.00;1.67;;;;;;;;;;5093398;28;20034;-70
2022/07/15 01:50:24;;;;;;;3.65;1.55;;;;;;;;;;5085219;28;20043;-70
2022/07/15 01:52:51;;;;;;;5.10;1.67;;;;;;;;;;5097447;28;20043;-70
2022/07/15 01:55:17;;;;;;;3.63;1.40;;;;;;;;;;5093256;28;20074;-70
2022/07/15 01:57:43;;;;;;;3.20;1.30;;;;;;;;;;5096020;28;20036;-70
2022/07/15 02:00:11;;;;;;;5.07;1.40;;;;;;;;;;5090966;28;20040;-70
2022/07/15 02:02:39;;;;;;;3.35;1.30;;;;;;;;;;5086972;28;20062;-70
2022/07/15 02:05:05;;;;;;;5.55;1.17;;;;;;;;;;5091379;28;20048;-70
2022/07/15 02:07:32;;;;;;;3.05;1.50;;;;;;;;;;5096137;28;20036;-70
2022/07/15 02:09:58;;;;;;;3.40;1.40;;;;;;;;;;5095153;28;20353;-70
2022/07/15 02:12:25;;;;;;;5.68;1.42;;;;;;;;;;5096823;28;20082;-69
2022/07/15 02:14:51;;;;;;;4.32;1.52;;;;;;;;;;5097722;28;20060;-70
2022/07/15 02:17:17;;;;;;;2.35;1.08;;;;;;;;;;5091150;28;20043;-70
2022/07/15 02:19:43;;;;;;;5.70;1.50;;;;;;;;;;5092440;28;20036;-70
2022/07/15 02:22:10;;;;;;;3.92;1.30;;;;;;;;;;5088906;28;20032;-70
2022/07/15 02:24:36;;;;;;;4.95;1.35;;;;;;;;;;5093763;28;20493;-70
2022/07/15 02:27:02;;;;;;;3.08;1.10;;;;;;;;;;5078317;28;20477;-70
2022/07/15 02:29:28;;;;;;;4.07;1.13;;;;;;;;;;5083660;28;20141;-70
2022/07/15 02:31:55;;;;;;;4.25;1.10;;;;;;;;;;5097513;28;20070;-70
2022/07/15 02:34:22;;;;;;;10.27;1.58;;;;;;;;;;5088787;28;20044;-70
2022/07/15 02:36:48;;;;;;;2.15;1.10;;;;;;;;;;5093612;28;20093;-70
2022/07/15 02:39:14;;;;;;;2.10;0.80;;;;;;;;;;5095068;28;20048;-70
2022/07/15 02:41:40;;;;;;;1.85;0.80;;;;;;;;;;5098875;28;20485;-70
2022/07/15 02:44:06;;;;;;;7.32;1.17;;;21.10;91.60;;;;;;5096265;28;20493;-70
2022/07/15 02:46:32;;;;;;;4.45;1.35;;;13.80;99.90;;;;;;5094025;28;20055;-70
2022/07/15 02:48:57;;;;;;;2.60;1.08;;;13.60;99.90;;;;;;5091093;28;20061;-70
2022/07/15 02:51:23;;;;;;;2.60;0.90;;;13.60;99.90;;;;;;5091861;28;20041;-70
2022/07/15 02:53:49;;;;;;;2.83;0.65;;;13.60;99.90;;;;;;5096504;28;20047;-70
2022/07/15 02:56:15;;;;;;;3.20;1.20;;;13.60;99.90;;;;;;5095573;28;20055;-70
2022/07/15 02:58:40;;;;;;;2.17;1.15;;;13.60;99.90;;;;;;5073195;28;20043;-70
2022/07/15 03:01:06;;;;;;;2.92;1.08;;;13.60;99.90;;;;;;5078007;28;20042;-70
2022/07/15 03:03:32;;;;;;;9.38;1.17;;;13.60;99.90;;;;;;5096762;28;20527;-70
2022/07/15 03:06:00;;;;;;;1.65;1.02;;;13.50;99.90;;;;;;5089903;28;20558;-70
2022/07/15 03:08:25;;;;;;;1.58;0.80;;;13.50;99.90;;;;;;5090756;28;20036;-70
2022/07/15 03:10:51;;;;;;;2.00;0.80;;;13.50;99.90;;;;;;5099289;28;20117;-70
2022/07/15 03:13:17;;;;;;;5.25;1.60;;;13.40;99.90;;;;;;5090432;28;20040;-70
2022/07/15 03:15:43;;;;;;;4.63;0.80;;;13.40;99.90;;;;;;5096593;28;20055;-70
2022/07/15 03:18:09;;;;;;;4.35;1.00;;;13.40;99.90;;;;;;5090437;28;20509;-70
2022/07/15 03:20:35;;;;;;;4.15;1.00;;;13.40;99.90;;;;;;5098881;28;20036;-70
2022/07/15 03:23:01;;;;;;;1.38;0.80;;;13.40;99.90;;;;;;5088272;28;20533;-70
2022/07/15 03:25:27;;;;;;;2.05;0.80;;;13.40;99.90;;;;;;5097387;27;20046;-70
2022/07/15 03:27:52;;;;;;;2.97;0.90;;;13.40;99.90;;;;;;5094861;28;20119;-70
2022/07/15 03:30:20;;;;;;;3.05;1.00;;;13.30;99.90;;;;;;5089117;28;20097;-70
2022/07/15 03:32:46;;;;;;;1.00;0.77;;;13.20;99.90;;;;;;5095348;28;20512;-70
2022/07/15 03:35:12;;;;;;;3.67;0.90;;;13.20;99.90;;;;;;5090310;28;20066;-70
2022/07/15 03:37:37;;;;;;;2.25;0.85;;;13.10;99.90;;;;;;5087185;28;20516;-70
2022/07/15 03:40:05;;;;;;;5.28;1.55;;;13.10;99.90;;;;;;5087263;28;20047;-70
2022/07/15 03:42:30;;;;;;;2.75;0.70;;;13.00;99.90;;;;;;5087050;28;20074;-70
2022/07/15 03:44:56;;;;;;;2.22;1.08;;;13.00;99.90;;;;;;5087554;28;20461;-70
2022/07/15 03:47:22;;;;;;;1.88;0.70;;;13.10;99.90;;;;;;5095063;28;20332;-70
2022/07/15 03:49:48;;;;;;;2.33;0.70;;;13.00;99.90;;;;;;5070030;28;20440;-70
2022/07/15 03:52:14;;;;;;;2.28;0.90;;;13.00;99.90;;;;;;5085970;28;20085;-70
2022/07/15 03:54:39;;;;;;;2.83;0.82;;;13.00;99.90;;;;;;5089437;28;20046;-70
2022/07/15 03:57:05;;;;;;;3.08;0.90;;;13.00;99.90;;;;;;5087376;28;20043;-70
2022/07/15 03:59:32;;;;;;;5.88;1.10;;;13.00;99.90;;;;;;5086856;28;20040;-70
2022/07/15 04:01:58;;;;;;;1.40;0.70;;;13.00;99.90;;;;;;5103716;28;20039;-70
2022/07/15 04:04:24;;;;;;;3.05;0.80;;;13.10;99.90;;;;;;5087490;28;20070;-70
2022/07/15 04:06:49;;;;;;;4.45;0.90;;;13.10;99.90;;;;;;5089172;28;20055;-70
2022/07/15 04:09:15;;;;;;;3.63;0.63;;;13.00;99.90;;;;;;5090812;28;20076;-70
2022/07/15 04:11:42;;;;;;;1.75;0.90;;;13.00;99.90;;;;;;5089226;28;20062;-70
2022/07/15 04:14:15;;;;;;;7.43;1.40;;;;;;;;;;5088416;28;20047;-70
2022/07/15 04:16:42;;;;;;;3.22;0.70;;;;;;;;;;5099988;28;20570;-70
2022/07/15 04:19:09;;;;;;;2.65;1.33;;;;;;;;;;5087662;28;20040;-70
2022/07/15 04:21:35;;;;;;;1.60;0.88;;;;;;;;;;5090971;28;20043;-70
2022/07/15 04:24:03;;;;;;;3.08;0.93;;;;;;;;;;5087939;28;20055;-70
2022/07/15 04:26:29;;;;;;;3.88;0.82;;;;;;;;;;5088433;28;20504;-70
2022/07/15 04:28:55;;;;;;;1.25;0.75;;;;;;;;;;5086871;28;20032;-70
2022/07/15 04:31:22;;;;;;;1.58;0.80;;;;;;;;;;5089868;28;20040;-70
2022/07/15 04:33:48;;;;;;;3.70;0.90;;;;;;;;;;5083773;28;20039;-70
2022/07/15 04:36:14;;;;;;;4.18;0.90;;;;;;;;;;5088476;28;20405;-70
2022/07/15 04:38:40;;;;;;;1.45;0.65;;;;;;;;;;5089502;28;20500;-70
2022/07/15 04:41:06;;;;;;;2.08;0.75;;;;;;;;;;5102393;28;20048;-70
2022/07/15 04:43:32;;;;;;;2.80;0.95;;;13.00;99.90;;;;;;5103985;27;20508;-70
2022/07/15 04:45:58;;;;;;;1.05;0.60;;;;;;;;;;5091587;28;20040;-70
2022/07/15 04:51:09;;;;;;;4.28;1.20;;;;;;;;;;5091727;28;20039;-70
2022/07/15 04:53:35;;;;;;;1.67;0.82;;;13.40;99.90;;;;;;5092511;28;20032;-70
2022/07/15 04:56:01;;;;;;;6.03;1.98;;;13.50;99.90;;;;;;5093220;28;20051;-70
2022/07/15 04:58:27;;;;;;;1.75;0.98;;;13.60;99.90;;;;;;5092445;28;20204;-70
2022/07/15 05:00:53;;;;;;;2.15;1.33;;;;;;;;;;5099973;28;20043;-70
2022/07/15 05:03:19;;;;;;;1.00;0.63;;;;;;;;;;5089691;28;20036;-70
2022/07/15 05:05:45;;;;;;;1.17;0.90;;;;;;;;;;5088524;28;20036;-70
2022/07/15 05:08:12;;;;;;;3.60;1.10;;;;;;;;;;5093780;28;20042;-70
2022/07/15 05:10:38;;;;;;;1.17;0.90;;;;;;;;;;5089430;28;20110;-70
2022/07/15 05:13:04;;;;;;;3.67;1.48;;;;;;;;;;5095358;28;20078;-70
2022/07/15 05:15:30;;;;;;;3.95;1.08;;;;;;;;;;5093122;28;20508;-70
2022/07/15 05:17:56;;;;;;;4.40;0.90;;;13.60;99.90;;;;;;5095154;28;20035;-70
2022/07/15 05:20:22;;;;;;;5.93;1.38;;;;;;;;;;5093863;28;20048;-70
2022/07/15 05:22:49;;;;;;;2.58;0.80;;;;;;;;;;5090281;28;20485;-70
2022/07/15 05:25:15;;;;;;;2.45;0.80;;;;;;;;;;5092038;28;20059;-70
2022/07/15 05:27:42;;;;;;;3.17;0.85;;;;;;;;;;5091701;28;20367;-70
2022/07/15 05:30:08;;;;;;;2.85;1.10;;;;;;;;;;5092882;28;20036;-71
2022/07/15 05:32:36;;;;;;;1.88;1.08;;;;;;;;;;5091874;28;20143;-71
2022/07/15 05:35:02;;;;;;;3.28;0.98;;;;;;;;;;5093614;28;20055;-70
2022/07/15 05:37:28;;;;;;;2.20;1.05;;;;;;;;;;5087364;28;20043;-71
2022/07/15 05:39:54;;;;;;;2.17;0.90;;;;;;;;;;5095717;27;20131;-70
2022/07/15 05:42:21;;;;;;;2.55;1.00;;;;;;;;;;5091601;28;20371;-70
2022/07/15 05:44:47;;;;;;;3.72;1.00;;;;;;;;;;5091172;28;20070;-70
2022/07/15 05:47:14;;;;;;;2.92;0.85;;;;;;;;;;5090784;28;20519;-70
2022/07/15 05:49:43;;;;;;;2.13;0.85;;;;;;;;;;5094767;28;20032;-70
2022/07/15 05:52:12;;;;;;;2.60;1.00;;;;;;;;;;5092620;28;20085;-70
2022/07/15 05:54:39;;;;;;;3.10;0.98;;;;;;;;;;5099797;28;20504;-70
2022/07/15 05:57:05;;;;;;;3.15;1.08;;;;;;;;;;5091059;28;20511;-70
2022/07/15 05:59:31;;;;;;;5.80;1.45;;;;;;;;;;5086466;28;20383;-71
2022/07/15 06:01:58;;;;;;;2.42;1.10;;;;;;;;;;5084226;28;20043;-70
2022/07/15 06:04:27;;;;;;;8.73;1.05;;;;;;;;;;5091259;28;20131;-72
2022/07/15 06:06:53;;;;;;;2.85;1.00;;;;;;;;;;5091251;28;20463;-70
2022/07/15 06:09:20;;;;;;;1.88;1.13;;;;;;;;;;5092441;28;20119;-70
2022/07/15 06:11:46;;;;;;;4.30;1.33;;;;;;;;;;5101111;28;20042;-70
2022/07/15 06:14:13;;;;;;;2.05;0.65;;;;;;;;;;5091933;28;20083;-70
2022/07/15 06:16:39;;;;;;;1.58;0.77;;;;;;;;;;5090673;28;20565;-70
2022/07/15 06:19:05;;;;;;;3.95;2.08;;;;;;;;;;5094810;28;20062;-70
2022/07/15 06:21:31;;;;;;;2.35;0.80;;;;;;;;;;5090869;28;20086;-70
2022/07/15 06:23:57;;;;;;;5.40;1.20;;;;;;;;;;5096803;28;20035;-70
2022/07/15 06:26:23;;;;;;;4.22;1.40;;;;;;;;;;5070067;28;20040;-70
2022/07/15 06:28:50;;;;;;;7.43;1.00;;;;;;;;;;5091556;28;20232;-70
2022/07/15 06:31:16;;;;;;;5.03;1.00;;;;;;;;;;5091675;28;20048;-70
2022/07/15 06:33:42;;;;;;;5.45;1.30;;;;;;;;;;5091480;28;20122;-69
2022/07/15 06:36:08;;;;;;;3.25;0.93;;;;;;;;;;5097708;28;20484;-70
2022/07/15 06:38:35;;;;;;;5.82;1.10;;;;;;;;;;5084977;28;20112;-70
2022/07/15 06:41:01;;;;;;;3.70;0.95;;;;;;;;;;5082161;28;20052;-70
2022/07/15 06:43:27;;;;;;;6.95;1.10;;;;;;;;;;5085180;28;20448;-70
2022/07/15 06:45:53;;;;;;;4.88;1.30;;;;;;;;;;5101303;27;20036;-70
2022/07/15 06:48:19;;;;;;;2.38;0.93;;;;;;;;;;5095572;28;20032;-70
2022/07/15 06:50:45;;;;;;;1.30;0.63;;;;;;;;;;5090050;28;20035;-70
2022/07/15 06:53:11;;;;;;;4.05;0.90;;;;;;;;;;5085627;28;20082;-70
2022/07/15 06:55:38;;;;;;;3.88;1.20;;;;;;;;;;5087684;28;20190;-69
2022/07/15 06:58:04;;;;;;;0.82;0.68;;;;;;;;;;5087955;28;20134;-70
2022/07/15 07:00:30;;;;;;;6.63;1.15;;;;;;;;;;5091931;28;20028;-69
2022/07/15 07:02:57;;;;;;;1.30;0.70;;;;;;;;;;5090339;28;20040;-70
2022/07/15 07:05:23;;;;;;;1.38;0.90;;;;;;;;;;5091702;28;20040;-70
2022/07/15 07:07:49;;;;;;;2.05;0.60;;;;;;;;;;5090652;28;20576;-70
2022/07/15 07:10:15;;;;;;;4.35;0.70;;;;;;;;;;5096262;28;20065;-70
2022/07/15 07:12:41;;;;;;;7.22;1.23;;;;;;;;;;5096306;28;20122;-70
2022/07/15 07:15:07;;;;;;;1.42;0.85;;;;;;;;;;5089287;28;20140;-71
2022/07/15 07:17:35;;;;;;;0.98;0.70;;;;;;;;;;5087771;28;20043;-70
2022/07/15 07:20:01;;;;;;;3.47;0.70;;;;;;;;;;5085499;28;20578;-70
2022/07/15 07:22:27;;;;;;;0.68;0.55;;;;;;;;;;5093881;28;20290;-70
2022/07/15 07:24:53;;;;;;;1.17;0.55;;;;;;;;;;5084884;28;20066;-70
2022/07/15 07:27:20;;;;;;;2.35;0.70;;;;;;;;;;5088422;28;20032;-70
2022/07/15 07:29:46;;;;;;;1.50;0.60;;;;;;;;;;5089795;28;20048;-71
2022/07/15 07:32:12;;;;;;;2.15;0.82;;;;;;;;;;5096432;28;20079;-70
2022/07/15 07:34:38;;;;;;;2.05;0.40;;;;;;;;;;5091476;28;20123;-71
2022/07/15 07:37:04;;;;;;;0.93;0.50;;;;;;;;;;5090055;28;20182;-70
2022/07/15 07:39:31;;;;;;;5.78;1.00;;;;;;;;;;5085821;28;20401;-70
2022/07/15 07:41:57;;;;;;;3.42;1.00;;;;;;;;;;5086945;28;20489;-73
2022/07/15 07:44:24;;;;;;;1.75;0.57;;;;;;;;;;5095272;28;20043;-74
2022/07/15 07:46:51;;;;;;;2.00;0.90;;;;;;;;;;5092888;28;20136;-74
2022/07/15 07:49:17;;;;;;;2.22;1.00;;;;;;;;;;5083314;28;20036;-73
2022/07/15 07:51:43;;;;;;;2.90;1.15;;;;;;;;;;5086916;28;20045;-73
2022/07/15 07:54:09;;;;;;;1.80;0.73;;;;;;;;;;5094359;28;20055;-74
2022/07/15 07:56:36;;;;;;;2.15;0.60;;;;;;;;;;5087961;28;20269;-74
2022/07/15 07:59:02;;;;;;;2.13;0.63;;;;;;;;;;5084832;28;20061;-73
2022/07/15 08:01:28;;;;;;;1.33;0.57;;;;;;;;;;5069951;28;20043;-73
2022/07/15 08:03:54;;;;;;;2.22;0.60;;;;;;;;;;5084929;28;20109;-74
2022/07/15 08:06:22;;;;;;;2.63;0.60;;;;;;;;;;5089615;28;20081;-73
2022/07/15 08:08:48;;;;;;;2.78;0.75;;;;;;;;;;5089529;28;20572;-74
2022/07/15 08:11:14;;;;;;;1.60;0.70;;;;;;;;;;5093594;28;20044;-74
2022/07/15 08:13:41;;;;;;;1.42;0.60;;;;;;;;;;5098552;28;20046;-74
2022/07/15 08:16:07;;;;;;;1.48;0.60;;;;;;;;;;5095496;28;20043;-74
2022/07/15 08:18:33;;;;;;;1.15;0.60;;;;;;;;;;5091301;28;20048;-74
2022/07/15 08:20:59;;;;;;;1.45;0.57;;;;;;;;;;5088056;28;20040;-74
2022/07/15 08:23:25;;;;;;;1.88;0.85;;;;;;;;;;5089158;28;20092;-74
2022/07/15 08:25:52;;;;;;;1.55;0.60;;;;;;;;;;5075754;28;20039;-74
2022/07/15 08:28:18;;;;;;;1.05;0.70;;;;;;;;;;5090979;28;20061;-74
2022/07/15 08:30:45;;;;;;;1.15;0.50;;;;;;;;;;5085995;28;20119;-74
2022/07/15 08:33:11;;;;;;;1.85;1.17;;;;;;;;;;5107910;28;20564;-75
2022/07/15 08:35:37;;;;;;;1.48;0.70;;;;;;;;;;5088910;28;20040;-74
2022/07/15 08:38:06;;;;;;;1.58;0.70;;;;;;;;;;5087641;28;20047;-75
2022/07/15 08:40:32;;;;;;;0.60;0.52;;;;;;;;;;5084799;28;20123;-74
2022/07/15 08:42:58;;;;;;;3.47;0.93;;;;;;;;;;5048310;28;20052;-73
2022/07/15 08:45:25;;;;;;;2.92;0.90;;;;;;;;;;5088383;28;20039;-74
2022/07/15 08:47:52;;;;;;;1.55;0.60;;;;;;;;;;5095456;28;20082;-75
2022/07/15 08:50:21;;;;;;;2.70;1.15;;;;;;;;;;5066100;28;20127;-74
2022/07/15 08:52:47;;;;;;;3.00;0.90;;;;;;;;;;5105266;28;20067;-74
2022/07/15 08:55:15;;;;;;;1.33;0.52;;;;;;;;;;5086031;28;20035;-74
2022/07/15 08:57:45;;;;;;;1.27;0.52;;;;;;;;;;5105856;28;20235;-74
2022/07/15 09:00:11;;;;;;;3.83;0.77;;;;;;;;;;5066914;28;20044;-73
2022/07/15 09:02:38;;;;;;;1.52;0.60;;;;;;;;;;5100915;28;20440;-74
2022/07/15 09:05:36;;;;;;;1.77;0.82;;;;;;;;;;5090597;28;20096;-74
2022/07/15 09:08:19;;;;;;;1.30;0.55;;;;;;;;;;5043874;28;20074;-74
2022/07/15 09:10:50;;;;;;;0.70;0.70;;;;;;;;;;5087821;28;20552;-74
2022/07/15 09:13:35;;;;;;;2.22;0.73;;;;;;;;;;5081930;28;20190;-74
2022/07/15 09:16:08;;;;;;;1.38;0.50;;;;;;;;;;5088639;28;20504;-75
2022/07/15 09:18:41;;;;;;;2.05;0.80;;;;;;;;;;5098537;28;20032;-74
2022/07/15 09:21:17;;;;;;;1.65;0.63;;;;;;;;;;5092362;28;20044;-74
2022/07/15 09:23:43;;;;;;;2.20;0.88;;;;;;;;;;5088491;28;20135;-74
2022/07/15 09:26:29;;;;;;;1.00;0.60;;;;;;;;;;5072523;28;20036;-75
2022/07/15 09:28:56;;;;;;;1.70;0.70;;;;;;;;;;5098812;28;20443;-74
2022/07/15 09:34:19;;;;;;;2.92;0.80;;;;;;;;;;5101542;28;20047;-74
2022/07/15 09:36:52;;;;;;;2.50;1.40;;;;;;;;;;5093330;28;20032;-74
2022/07/15 09:39:19;;;;;;;0.60;0.50;;;;;;;;;;5085483;28;20044;-74
2022/07/15 09:41:45;;;;;;;0.65;0.50;;;;;;;;;;5088202;28;20146;-74
2022/07/15 09:44:13;;;;;;;3.53;1.45;;;;;;;;;;5087748;28;20462;-74
2022/07/15 09:46:41;;;;;;;3.95;0.73;;;;;;;;;;5096858;28;20459;-74
2022/07/15 09:49:07;;;;;;;4.07;0.65;;;;;;;;;;5094119;28;20051;-74
2022/07/15 09:51:43;;;;;;;1.02;0.60;;;;;;;;;;5103467;27;20548;-73
2022/07/15 09:54:11;;;;;;;0.93;0.55;;;;;;;;;;5085275;28;20087;-74
2022/07/15 09:56:37;;;;;;;2.00;0.70;;;;;;;;;;5096408;28;20044;-74
2022/07/15 09:59:04;;;;;;;1.00;0.50;;;;;;;;;;5097008;28;20100;-74
2022/07/15 10:01:30;;;;;;;2.28;0.60;;;;;;;;;;5103313;27;20139;-74
2022/07/15 10:03:57;;;;;;;2.42;0.63;;;;;;;;;;5088639;28;20044;-74
2022/07/15 10:06:26;;;;;;;4.03;0.82;;;;;;;;;;5088338;28;20540;-73
2022/07/15 10:08:53;;;;;;;2.92;0.68;;;;;;;;;;5090420;28;20718;-73
2022/07/15 10:11:20;;;;;;;1.17;0.52;;;;;;;;;;5090249;28;20036;-74
2022/07/15 10:14:08;;;;;;;1.98;0.88;;;;;;;;;;5098019;28;20078;-74
2022/07/15 10:16:53;;;;;;;1.38;0.73;;;;;;;;;;5094292;28;20032;-73
2022/07/15 10:19:39;;;;;;;4.28;1.23;;;;;;;;;;5094758;28;20044;-74
2022/07/15 10:22:24;;;;;;;1.58;0.90;;;;;;;;;;5084852;28;20100;-74
2022/07/15 10:24:54;;;;;;;2.60;0.73;;;;;;;;;;5096185;28;20071;-74
2022/07/15 10:27:23;;;;;;;3.83;0.75;;;;;;;;;;5088747;28;20492;-74
2022/07/15 10:29:50;;;;;;;0.90;0.57;;;;;;;;;;5074175;28;20554;-74
2022/07/15 10:32:16;;;;;;;2.05;0.65;;;;;;;;;;5090509;28;20047;-74
2022/07/15 10:34:43;;;;;;;1.50;0.73;;;;;;;;;;5089384;28;20047;-74
2022/07/15 10:37:10;;;;;;;2.78;0.90;;;;;;;;;;5100444;28;20051;-73
2022/07/15 10:40:00;;;;;;;0.60;0.50;;;;;;;;;;5095995;28;20032;-74
2022/07/15 10:42:27;;;;;;;5.30;1.10;;;;;;;;;;5087973;28;20048;-74
2022/07/15 10:45:02;;;;;;;2.22;1.20;;;;;;;;;;5094461;28;20032;-74
2022/07/15 10:47:29;;;;;;;1.08;0.68;;;;;;;;;;5097223;28;20561;-74
2022/07/15 10:49:56;;;;;;;1.75;0.70;;;;;;;;;;5094507;28;20122;-73
2022/07/15 10:52:23;;;;;;;1.92;0.90;;;;;;;;;;5103378;27;20051;-74
2022/07/15 10:54:50;;;;;;;2.15;0.90;;;;;;;;;;5092220;28;20100;-74
2022/07/15 10:57:19;;;;;;;1.90;0.90;;;;;;;;;;5090506;28;20040;-74
2022/07/15 10:59:53;;;;;;;1.98;0.75;;;;;;;;;;5091332;28;20036;-74
2022/07/15 11:02:20;;;;;;;2.08;0.85;;;;;;;;;;5110561;27;20075;-74
2022/07/15 11:04:46;;;;;;;2.65;1.05;;;;;;;;;;5094740;28;20046;-74
2022/07/15 11:07:15;;;;;;;2.85;1.20;;;;;;;;;;5097043;28;20055;-73
2022/07/15 11:10:00;;;;;;;1.33;0.80;;;;;;;;;;5096026;28;20178;-73
2022/07/15 11:12:29;;;;;;;1.25;0.80;;;;;;;;;;5094253;28;20044;-74
2022/07/15 11:14:56;;;;;;;2.17;1.00;;;;;;;;;;5095755;28;20031;-73
2022/07/15 11:17:25;;;;;;;3.60;1.40;;;;;;;;;;5096547;28;20199;-74
2022/07/15 11:19:53;;;;;;;2.38;0.85;;;;;;;;;;5094541;28;20496;-74
2022/07/15 11:22:20;;;;;;;1.85;0.85;;;;;;;;;;5097246;28;20055;-74
2022/07/15 11:24:47;;;;;;;1.88;1.00;;;;;;;;;;5067679;28;20262;-74
2022/07/15 11:27:13;;;;;;;2.42;0.63;;;;;;;;;;5104433;28;20061;-73
2022/07/15 11:29:44;;;;;;;3.97;1.10;;;;;;;;;;5067566;28;20043;-73
2022/07/15 11:32:10;;;;;;;3.65;1.10;;;;;;;;;;5108506;27;20137;-73
2022/07/15 11:34:38;;;;;;;2.25;1.08;;;;;;;;;;5086501;28;20255;-74
2022/07/15 11:37:04;;;;;;;5.03;1.00;;;;;;;;;;5103808;27;20083;-74
2022/07/15 11:39:31;;;;;;;4.13;1.23;;;;;;;;;;5097100;27;20457;-74
2022/07/15 11:44:47;;;;;;;4.18;1.10;;;;;;;;;;5087073;28;20044;-74
2022/07/15 11:47:13;;;;;;;2.88;1.10;;;;;;;;;;5079021;28;20044;-74
2022/07/15 11:49:39;;;;;;;8.77;1.55;;;;;;;;;;5096729;27;20094;-74
2022/07/15 11:52:07;;;;;;;2.63;1.13;;;;;;;;;;5091137;28;20523;-73
2022/07/15 11:54:35;;;;;;;3.45;1.45;;;;;;;;;;5088714;28;20128;-74
2022/07/15 11:57:08;;;;;;;2.08;1.15;;;;;;;;;;5086708;28;20047;-74
2022/07/15 11:59:35;;;;;;;1.50;1.05;;;;;;;;;;5073837;28;20043;-74
2022/07/15 12:02:09;;;;;;;2.10;1.10;;;;;;;;;;5089956;28;20454;-74
2022/07/15 12:04:36;;;;;;;2.42;1.25;;;;;;;;;;5083157;28;20040;-74
2022/07/15 12:07:02;;;;;;;2.85;1.23;;;;;;;;;;5090977;28;20063;-74
2022/07/15 12:09:42;;;;;;;5.45;1.25;;;;;;;;;;5097477;28;20044;-74
2022/07/15 12:12:08;;;;;;;2.95;1.17;;;;;;;;;;5097731;28;20415;-74
2022/07/15 12:14:34;;;;;;;2.00;1.10;;;;;;;;;;5089291;28;20359;-74
2022/07/15 12:17:00;;;;;;;4.50;1.20;;;;;;;;;;5096481;28;20049;-74
2022/07/15 12:19:30;;;;;;;1.88;1.25;;;;;;;;;;5093279;28;20054;-74
2022/07/15 12:21:57;;;;;;;1.95;1.13;;;;;;;;;;5098685;28;20071;-73
2022/07/15 12:24:36;;;;;;;4.35;1.30;;;;;;;;;;5096054;28;20448;-74
2022/07/15 12:27:02;;;;;;;3.70;2.03;;;;;;;;;;5094090;28;20397;-74
2022/07/15 12:29:30;;;;;;;1.85;1.00;;;;;;;;;;5096916;28;20082;-74
2022/07/15 12:31:57;;;;;;;2.72;1.38;;;;;;;;;;5088054;28;20168;-73
2022/07/15 12:34:43;;;;;;;1.83;1.05;;;;;;;;;;5070819;28;20097;-73
2022/07/15 12:37:09;;;;;;;4.90;1.50;;;;;;;;;;5097344;28;20071;-74
2022/07/15 12:39:53;;;;;;;3.33;1.20;;;;;;;;;;5098067;28;20047;-73
2022/07/15 12:42:20;;;;;;;6.38;1.63;;;;;;;;;;5065991;28;20048;-74
2022/07/15 12:44:46;;;;;;;3.33;1.42;;;;;;;;;;5091941;28;20515;-74
2022/07/15 12:47:15;;;;;;;2.45;1.38;;;;;;;;;;5088160;28;20157;-74
2022/07/15 12:49:44;;;;;;;2.90;1.70;;;;;;;;;;5087457;28;20146;-74
2022/07/15 12:52:14;;;;;;;2.72;1.15;;;;;;;;;;5105264;28;20105;-74
2022/07/15 12:54:40;;;;;;;3.42;1.25;;;;;;;;;;5078336;28;20443;-73
2022/07/15 12:57:06;;;;;;;7.30;2.33;;;;;;;;;;5091401;28;20044;-74
2022/07/15 12:59:51;;;;;;;3.13;1.30;;;;;;;;;;5103132;28;20057;-77
2022/07/15 13:02:17;;;;;;;4.55;1.15;;;;;;;;;;5094960;28;20371;-74
2022/07/15 13:04:43;;;;;;;2.20;1.10;;;;;;;;;;5093344;28;20040;-74
2022/07/15 13:07:10;;;;;;;1.95;1.20;;;;;;;;;;5100720;28;20035;-74
2022/07/15 13:09:36;;;;;;;2.90;1.27;;;;;;;;;;5096666;28;20485;-74
2022/07/15 13:12:02;;;;;;;3.55;1.52;;;;;;;;;;5092407;28;20553;-74
2022/07/15 13:14:28;;;;;;;3.28;1.00;;;;;;;;;;5075902;28;20059;-75
2022/07/15 13:16:55;;;;;;;1.80;1.02;;;;;;;;;;5105755;27;20035;-74
2022/07/15 13:19:21;;;;;;;6.13;1.30;;;;;;;;;;5092727;28;20126;-74
2022/07/15 13:21:48;;;;;;;3.05;1.30;;;;;;;;;;5060858;28;20127;-74
2022/07/15 13:24:14;;;;;;;5.53;1.50;;;;;;;;;;5094044;28;20060;-74
2022/07/15 13:26:42;;;;;;;3.30;1.40;;;;;;;;;;5092310;28;20370;-75
2022/07/15 13:29:08;;;;;;;3.45;1.50;;;;;;;;;;5080889;28;20521;-75
2022/07/15 13:31:34;;;;;;;1.63;1.02;;;;;;;;;;5097569;28;20442;-75
2022/07/15 13:34:00;;;;;;;3.30;0.90;;;;;;;;;;5105743;27;20501;-75
2022/07/15 13:36:27;;;;;;;1.92;1.20;;;;;;;;;;5090786;28;20126;-75
2022/07/15 13:38:53;;;;;;;2.40;1.23;;;;;;;;;;5094145;28;20100;-75
2022/07/15 13:41:20;;;;;;;3.40;1.42;;;;;;;;;;5092651;28;20047;-74
2022/07/15 13:43:46;;;;;;;2.95;1.67;;;;;;;;;;5114257;27;20077;-75
2022/07/15 13:46:12;;;;;;;3.38;1.30;;;;;;;;;;5101262;28;20032;-74
2022/07/15 13:48:38;;;;;;;5.65;1.65;;;;;;;;;;5094869;28;20084;-75
2022/07/15 13:51:22;;;;;;;5.05;1.30;;;;;;;;;;5090497;28;20149;-74
2022/07/15 13:53:49;;;;;;;4.38;1.25;;;;;;;;;;5078111;28;20058;-74
2022/07/15 13:56:15;;;;;;;2.13;1.42;;;;;;;;;;5094888;28;20047;-74
2022/07/15 13:58:42;;;;;;;4.18;1.38;;;;;;;;;;5096913;28;20051;-74
2022/07/15 14:01:08;;;;;;;4.95;1.70;;;;;;;;;;5104420;27;20033;-74
2022/07/15 14:03:34;;;;;;;3.95;1.60;;;;;;;;;;5091233;28;20190;-74
2022/07/15 14:06:00;;;;;;;2.80;1.40;;;;;;;;;;5104178;27;20047;-75
2022/07/15 14:08:26;;;;;;;4.13;1.50;;;;;;;;;;5090900;28;20089;-74
2022/07/15 14:10:52;;;;;;;3.60;1.63;;;;;;;;;;5063208;28;20043;-74
2022/07/15 14:13:19;;;;;;;2.67;1.20;;;;;;;;;;5106228;27;20047;-74
2022/07/15 14:15:45;;;;;;;4.95;1.73;;;;;;;;;;5100310;28;20150;-74
2022/07/15 14:18:11;;;;;;;6.82;2.08;;;;;;;;;;5096110;28;20513;-74
2022/07/15 14:20:37;;;;;;;2.63;1.40;;;;;;;;;;5088839;28;20044;-74
2022/07/15 14:23:04;;;;;;;3.20;1.48;;;;;;;;;;5090970;28;20051;-75
2022/07/15 14:25:30;;;;;;;6.30;2.00;;;;;;;;;;5100058;28;20132;-74
2022/07/15 14:27:57;;;;;;;3.15;1.75;;;;;;;;;;5090621;28;20040;-74
2022/07/15 14:30:23;;;;;;;2.05;1.10;;;;;;;;;;5096328;28;20455;-75
2022/07/15 14:32:50;;;;;;;3.17;1.58;;;;;;;;;;5092221;28;20046;-74
2022/07/15 14:35:16;;;;;;;5.35;1.75;;;;;;;;;;5094335;27;20458;-74
2022/07/15 14:37:42;;;;;;;4.63;1.95;;;;;;;;;;5094254;28;20065;-75